sensor_id;sensor_type;location;lat;lon;timestamp;P1;durP1;ratioP1;P2;durP2;ratioP2
18657;SDS011;9458;50.942;5.074;2023-02-24T00:00:11;7.40;;;3.42;;
18657;SDS011;9458;50.942;5.074;2023-02-24T00:03:00;13.05;;;3.40;;
18657;SDS011;9458;50.942;5.074;2023-02-24T00:05:34;8.57;;;2.55;;
18657;SDS011;9458;50.942;5.074;2023-02-24T00:08:03;9.63;;;3.00;;
18657;SDS011;9458;50.942;5.074;2023-02-24T00:10:32;6.38;;;2.55;;
18657;SDS011;9458;50.942;5.074;2023-02-24T00:13:04;12.90;;;3.13;;
18657;SDS011;9458;50.942;5.074;2023-02-24T00:15:31;11.07;;;2.65;;
18657;SDS011;9458;50.942;5.074;2023-02-24T00:18:00;7.43;;;2.72;;
18657;SDS011;9458;50.942;5.074;2023-02-24T00:20:31;10.20;;;3.00;;
18657;SDS011;9458;50.942;5.074;2023-02-24T00:23:00;8.98;;;2.85;;
18657;SDS011;9458;50.942;5.074;2023-02-24T00:25:29;11.88;;;3.03;;
18657;SDS011;9458;50.942;5.074;2023-02-24T00:27:57;6.53;;;2.47;;
18657;SDS011;9458;50.942;5.074;2023-02-24T00:30:28;12.98;;;2.45;;
18657;SDS011;9458;50.942;5.074;2023-02-24T00:32:58;8.85;;;2.05;;
18657;SDS011;9458;50.942;5.074;2023-02-24T00:35:28;6.60;;;2.25;;
18657;SDS011;9458;50.942;5.074;2023-02-24T00:37:55;9.75;;;2.10;;
18657;SDS011;9458;50.942;5.074;2023-02-24T00:40:24;15.18;;;2.60;;
18657;SDS011;9458;50.942;5.074;2023-02-24T00:42:54;7.32;;;2.40;;
18657;SDS011;9458;50.942;5.074;2023-02-24T00:45:22;10.90;;;2.13;;
18657;SDS011;9458;50.942;5.074;2023-02-24T00:47:51;9.20;;;2.45;;
18657;SDS011;9458;50.942;5.074;2023-02-24T00:50:23;10.20;;;2.58;;
18657;SDS011;9458;50.942;5.074;2023-02-24T00:52:51;11.02;;;2.25;;
18657;SDS011;9458;50.942;5.074;2023-02-24T00:55:19;20.80;;;2.20;;
18657;SDS011;9458;50.942;5.074;2023-02-24T00:57:48;7.53;;;2.50;;
18657;SDS011;9458;50.942;5.074;2023-02-24T01:00:16;11.40;;;2.33;;
18657;SDS011;9458;50.942;5.074;2023-02-24T01:02:52;9.90;;;2.33;;
18657;SDS011;9458;50.942;5.074;2023-02-24T01:05:28;9.25;;;2.08;;
18657;SDS011;9458;50.942;5.074;2023-02-24T01:07:59;11.25;;;2.25;;
18657;SDS011;9458;50.942;5.074;2023-02-24T01:10:27;10.63;;;2.22;;
18657;SDS011;9458;50.942;5.074;2023-02-24T01:12:58;10.77;;;2.92;;
18657;SDS011;9458;50.942;5.074;2023-02-24T01:15:27;11.95;;;2.92;;
18657;SDS011;9458;50.942;5.074;2023-02-24T01:17:57;12.07;;;2.35;;
18657;SDS011;9458;50.942;5.074;2023-02-24T01:20:30;17.10;;;2.42;;
18657;SDS011;9458;50.942;5.074;2023-02-24T01:23:00;12.63;;;2.13;;
18657;SDS011;9458;50.942;5.074;2023-02-24T01:25:31;11.73;;;2.60;;
18657;SDS011;9458;50.942;5.074;2023-02-24T01:28:01;13.32;;;2.08;;
18657;SDS011;9458;50.942;5.074;2023-02-24T01:30:28;14.98;;;2.45;;
18657;SDS011;9458;50.942;5.074;2023-02-24T01:32:59;15.43;;;2.55;;
18657;SDS011;9458;50.942;5.074;2023-02-24T01:35:26;15.30;;;2.58;;
18657;SDS011;9458;50.942;5.074;2023-02-24T01:37:57;13.55;;;2.33;;
18657;SDS011;9458;50.942;5.074;2023-02-24T01:40:27;12.75;;;3.05;;
18657;SDS011;9458;50.942;5.074;2023-02-24T01:42:56;8.05;;;2.50;;
18657;SDS011;9458;50.942;5.074;2023-02-24T01:45:25;15.45;;;2.60;;
18657;SDS011;9458;50.942;5.074;2023-02-24T01:47:56;16.33;;;3.63;;
18657;SDS011;9458;50.942;5.074;2023-02-24T01:50:28;16.65;;;2.78;;
18657;SDS011;9458;50.942;5.074;2023-02-24T01:53:00;9.10;;;2.40;;
18657;SDS011;9458;50.942;5.074;2023-02-24T01:55:32;14.68;;;2.58;;
18657;SDS011;9458;50.942;5.074;2023-02-24T01:58:08;13.68;;;2.90;;
18657;SDS011;9458;50.942;5.074;2023-02-24T02:00:43;13.00;;;3.00;;
18657;SDS011;9458;50.942;5.074;2023-02-24T02:03:17;15.23;;;2.97;;
18657;SDS011;9458;50.942;5.074;2023-02-24T02:05:53;10.68;;;2.55;;
18657;SDS011;9458;50.942;5.074;2023-02-24T02:08:26;10.73;;;2.58;;
18657;SDS011;9458;50.942;5.074;2023-02-24T02:10:55;14.55;;;3.05;;
18657;SDS011;9458;50.942;5.074;2023-02-24T02:13:31;14.27;;;3.38;;
18657;SDS011;9458;50.942;5.074;2023-02-24T02:19:08;11.82;;;3.10;;
18657;SDS011;9458;50.942;5.074;2023-02-24T02:22:03;8.95;;;2.63;;
18657;SDS011;9458;50.942;5.074;2023-02-24T02:25:09;15.70;;;2.85;;
18657;SDS011;9458;50.942;5.074;2023-02-24T02:31:05;12.82;;;2.53;;
18657;SDS011;9458;50.942;5.074;2023-02-24T02:36:56;12.73;;;2.60;;
18657;SDS011;9458;50.942;5.074;2023-02-24T02:39:32;12.77;;;3.58;;
18657;SDS011;9458;50.942;5.074;2023-02-24T02:42:09;12.15;;;2.70;;
18657;SDS011;9458;50.942;5.074;2023-02-24T02:44:48;12.07;;;2.63;;
18657;SDS011;9458;50.942;5.074;2023-02-24T02:47:22;15.75;;;2.30;;
18657;SDS011;9458;50.942;5.074;2023-02-24T02:49:56;11.98;;;2.40;;
18657;SDS011;9458;50.942;5.074;2023-02-24T02:52:28;11.23;;;2.13;;
18657;SDS011;9458;50.942;5.074;2023-02-24T02:55:04;18.75;;;2.55;;
18657;SDS011;9458;50.942;5.074;2023-02-24T02:57:36;12.35;;;2.60;;
18657;SDS011;9458;50.942;5.074;2023-02-24T03:00:13;8.23;;;2.30;;
18657;SDS011;9458;50.942;5.074;2023-02-24T03:02:47;15.85;;;2.63;;
18657;SDS011;9458;50.942;5.074;2023-02-24T03:05:21;17.35;;;2.97;;
18657;SDS011;9458;50.942;5.074;2023-02-24T03:07:56;13.52;;;2.47;;
18657;SDS011;9458;50.942;5.074;2023-02-24T03:10:29;16.88;;;2.90;;
18657;SDS011;9458;50.942;5.074;2023-02-24T03:13:03;14.88;;;2.75;;
18657;SDS011;9458;50.942;5.074;2023-02-24T03:15:35;9.15;;;2.42;;
18657;SDS011;9458;50.942;5.074;2023-02-24T03:18:10;10.52;;;2.75;;
18657;SDS011;9458;50.942;5.074;2023-02-24T03:20:55;7.72;;;2.45;;
18657;SDS011;9458;50.942;5.074;2023-02-24T03:23:26;13.18;;;2.95;;
18657;SDS011;9458;50.942;5.074;2023-02-24T03:25:59;10.73;;;2.38;;
18657;SDS011;9458;50.942;5.074;2023-02-24T03:28:43;11.82;;;2.78;;
18657;SDS011;9458;50.942;5.074;2023-02-24T03:31:20;12.68;;;2.72;;
18657;SDS011;9458;50.942;5.074;2023-02-24T03:33:56;16.80;;;3.10;;
18657;SDS011;9458;50.942;5.074;2023-02-24T03:36:30;11.00;;;3.08;;
18657;SDS011;9458;50.942;5.074;2023-02-24T03:38:59;14.63;;;2.75;;
18657;SDS011;9458;50.942;5.074;2023-02-24T03:41:32;12.02;;;2.58;;
18657;SDS011;9458;50.942;5.074;2023-02-24T03:44:06;13.48;;;2.28;;
18657;SDS011;9458;50.942;5.074;2023-02-24T03:46:37;15.45;;;3.03;;
18657;SDS011;9458;50.942;5.074;2023-02-24T03:49:08;11.27;;;2.85;;
18657;SDS011;9458;50.942;5.074;2023-02-24T03:51:43;10.98;;;2.92;;
18657;SDS011;9458;50.942;5.074;2023-02-24T03:54:24;10.93;;;2.83;;
18657;SDS011;9458;50.942;5.074;2023-02-24T03:57:11;11.80;;;3.17;;
18657;SDS011;9458;50.942;5.074;2023-02-24T03:59:49;14.02;;;2.35;;
18657;SDS011;9458;50.942;5.074;2023-02-24T04:02:24;9.23;;;2.83;;
18657;SDS011;9458;50.942;5.074;2023-02-24T04:04:58;12.13;;;2.38;;
18657;SDS011;9458;50.942;5.074;2023-02-24T04:07:39;10.45;;;2.63;;
18657;SDS011;9458;50.942;5.074;2023-02-24T04:10:17;12.60;;;2.75;;
18657;SDS011;9458;50.942;5.074;2023-02-24T04:12:51;13.98;;;3.67;;
18657;SDS011;9458;50.942;5.074;2023-02-24T04:15:24;13.10;;;2.58;;
18657;SDS011;9458;50.942;5.074;2023-02-24T04:17:57;13.30;;;2.60;;
18657;SDS011;9458;50.942;5.074;2023-02-24T04:20:31;9.23;;;2.45;;
18657;SDS011;9458;50.942;5.074;2023-02-24T04:23:03;10.40;;;2.63;;
18657;SDS011;9458;50.942;5.074;2023-02-24T04:25:34;7.03;;;2.38;;
18657;SDS011;9458;50.942;5.074;2023-02-24T04:28:03;14.32;;;2.75;;
18657;SDS011;9458;50.942;5.074;2023-02-24T04:30:35;7.85;;;2.22;;
18657;SDS011;9458;50.942;5.074;2023-02-24T04:33:07;10.85;;;2.72;;
18657;SDS011;9458;50.942;5.074;2023-02-24T04:35:36;6.38;;;2.00;;
18657;SDS011;9458;50.942;5.074;2023-02-24T04:38:06;7.03;;;2.00;;
18657;SDS011;9458;50.942;5.074;2023-02-24T04:40:34;11.23;;;2.78;;
18657;SDS011;9458;50.942;5.074;2023-02-24T04:43:05;10.00;;;2.30;;
18657;SDS011;9458;50.942;5.074;2023-02-24T04:45:34;9.27;;;2.42;;
18657;SDS011;9458;50.942;5.074;2023-02-24T04:48:04;9.63;;;2.67;;
18657;SDS011;9458;50.942;5.074;2023-02-24T04:50:37;11.68;;;2.97;;
18657;SDS011;9458;50.942;5.074;2023-02-24T04:53:11;10.68;;;2.33;;
18657;SDS011;9458;50.942;5.074;2023-02-24T04:55:40;13.73;;;3.20;;
18657;SDS011;9458;50.942;5.074;2023-02-24T04:58:13;9.88;;;2.47;;
18657;SDS011;9458;50.942;5.074;2023-02-24T05:00:45;11.20;;;2.28;;
18657;SDS011;9458;50.942;5.074;2023-02-24T05:03:14;12.65;;;2.92;;
18657;SDS011;9458;50.942;5.074;2023-02-24T05:05:47;6.18;;;2.05;;
18657;SDS011;9458;50.942;5.074;2023-02-24T05:08:22;7.88;;;2.40;;
18657;SDS011;9458;50.942;5.074;2023-02-24T05:10:51;10.70;;;1.85;;
18657;SDS011;9458;50.942;5.074;2023-02-24T05:13:22;8.30;;;2.03;;
18657;SDS011;9458;50.942;5.074;2023-02-24T05:15:52;7.32;;;1.90;;
18657;SDS011;9458;50.942;5.074;2023-02-24T05:18:22;8.57;;;2.13;;
18657;SDS011;9458;50.942;5.074;2023-02-24T05:20:51;8.80;;;2.92;;
18657;SDS011;9458;50.942;5.074;2023-02-24T05:23:39;13.95;;;2.63;;
18657;SDS011;9458;50.942;5.074;2023-02-24T05:26:09;12.75;;;2.20;;
18657;SDS011;9458;50.942;5.074;2023-02-24T05:28:40;7.90;;;2.33;;
18657;SDS011;9458;50.942;5.074;2023-02-24T05:31:12;10.32;;;2.70;;
18657;SDS011;9458;50.942;5.074;2023-02-24T05:33:42;4.45;;;2.05;;
18657;SDS011;9458;50.942;5.074;2023-02-24T05:36:12;8.40;;;2.42;;
18657;SDS011;9458;50.942;5.074;2023-02-24T05:38:43;11.23;;;2.53;;
18657;SDS011;9458;50.942;5.074;2023-02-24T05:41:12;9.32;;;2.67;;
18657;SDS011;9458;50.942;5.074;2023-02-24T05:43:43;10.13;;;3.20;;
18657;SDS011;9458;50.942;5.074;2023-02-24T05:46:12;11.10;;;2.43;;
18657;SDS011;9458;50.942;5.074;2023-02-24T05:48:40;9.48;;;3.20;;
18657;SDS011;9458;50.942;5.074;2023-02-24T05:51:09;7.78;;;2.45;;
18657;SDS011;9458;50.942;5.074;2023-02-24T05:53:38;7.45;;;2.08;;
18657;SDS011;9458;50.942;5.074;2023-02-24T05:56:09;8.68;;;1.98;;
18657;SDS011;9458;50.942;5.074;2023-02-24T05:58:37;7.73;;;1.90;;
18657;SDS011;9458;50.942;5.074;2023-02-24T06:01:09;8.95;;;2.60;;
18657;SDS011;9458;50.942;5.074;2023-02-24T06:03:43;5.53;;;2.15;;
18657;SDS011;9458;50.942;5.074;2023-02-24T06:06:13;8.43;;;2.40;;
18657;SDS011;9458;50.942;5.074;2023-02-24T06:08:41;8.35;;;2.33;;
18657;SDS011;9458;50.942;5.074;2023-02-24T06:11:16;11.67;;;2.50;;
18657;SDS011;9458;50.942;5.074;2023-02-24T06:13:45;8.20;;;2.60;;
18657;SDS011;9458;50.942;5.074;2023-02-24T06:16:15;8.57;;;2.53;;
18657;SDS011;9458;50.942;5.074;2023-02-24T06:18:46;6.70;;;2.30;;
18657;SDS011;9458;50.942;5.074;2023-02-24T06:21:16;10.90;;;2.40;;
18657;SDS011;9458;50.942;5.074;2023-02-24T06:23:46;7.10;;;2.60;;
18657;SDS011;9458;50.942;5.074;2023-02-24T06:26:14;10.00;;;2.40;;
18657;SDS011;9458;50.942;5.074;2023-02-24T06:28:46;7.97;;;2.23;;
18657;SDS011;9458;50.942;5.074;2023-02-24T06:31:14;7.10;;;2.33;;
18657;SDS011;9458;50.942;5.074;2023-02-24T06:33:43;12.48;;;3.22;;
18657;SDS011;9458;50.942;5.074;2023-02-24T06:36:10;7.75;;;2.45;;
18657;SDS011;9458;50.942;5.074;2023-02-24T06:38:39;4.40;;;2.60;;
18657;SDS011;9458;50.942;5.074;2023-02-24T06:41:08;11.20;;;3.77;;
18657;SDS011;9458;50.942;5.074;2023-02-24T06:43:39;6.47;;;2.73;;
18657;SDS011;9458;50.942;5.074;2023-02-24T06:46:08;9.48;;;3.40;;
18657;SDS011;9458;50.942;5.074;2023-02-24T06:48:37;12.03;;;3.07;;
18657;SDS011;9458;50.942;5.074;2023-02-24T06:51:07;8.00;;;3.07;;
18657;SDS011;9458;50.942;5.074;2023-02-24T06:53:37;6.13;;;2.80;;
18657;SDS011;9458;50.942;5.074;2023-02-24T06:56:07;8.07;;;2.57;;
18657;SDS011;9458;50.942;5.074;2023-02-24T06:58:44;14.70;;;3.40;;
18657;SDS011;9458;50.942;5.074;2023-02-24T07:01:16;10.77;;;3.23;;
18657;SDS011;9458;50.942;5.074;2023-02-24T07:03:56;12.23;;;2.90;;
18657;SDS011;9458;50.942;5.074;2023-02-24T07:06:40;7.57;;;3.17;;
18657;SDS011;9458;50.942;5.074;2023-02-24T07:09:11;11.05;;;3.75;;
18657;SDS011;9458;50.942;5.074;2023-02-24T07:11:53;10.03;;;2.70;;
18657;SDS011;9458;50.942;5.074;2023-02-24T07:14:23;9.25;;;3.03;;
18657;SDS011;9458;50.942;5.074;2023-02-24T07:16:52;13.07;;;3.97;;
18657;SDS011;9458;50.942;5.074;2023-02-24T07:19:22;17.17;;;5.00;;
18657;SDS011;9458;50.942;5.074;2023-02-24T07:21:54;10.18;;;4.68;;
18657;SDS011;9458;50.942;5.074;2023-02-24T07:24:24;7.00;;;3.80;;
18657;SDS011;9458;50.942;5.074;2023-02-24T07:27:01;16.30;;;4.85;;
18657;SDS011;9458;50.942;5.074;2023-02-24T07:29:32;12.75;;;4.30;;
18657;SDS011;9458;50.942;5.074;2023-02-24T07:32:03;10.05;;;3.80;;
18657;SDS011;9458;50.942;5.074;2023-02-24T07:34:32;12.65;;;3.58;;
18657;SDS011;9458;50.942;5.074;2023-02-24T07:37:03;11.13;;;3.75;;
18657;SDS011;9458;50.942;5.074;2023-02-24T07:39:32;7.35;;;3.50;;
18657;SDS011;9458;50.942;5.074;2023-02-24T07:42:01;12.32;;;3.60;;
18657;SDS011;9458;50.942;5.074;2023-02-24T07:44:29;14.60;;;3.67;;
18657;SDS011;9458;50.942;5.074;2023-02-24T07:46:58;8.75;;;3.35;;
18657;SDS011;9458;50.942;5.074;2023-02-24T07:49:32;10.50;;;3.58;;
18657;SDS011;9458;50.942;5.074;2023-02-24T07:52:01;8.68;;;3.58;;
18657;SDS011;9458;50.942;5.074;2023-02-24T07:54:33;8.70;;;3.50;;
18657;SDS011;9458;50.942;5.074;2023-02-24T07:57:01;8.60;;;3.20;;
18657;SDS011;9458;50.942;5.074;2023-02-24T07:59:29;9.38;;;3.45;;
18657;SDS011;9458;50.942;5.074;2023-02-24T08:01:59;10.80;;;3.33;;
18657;SDS011;9458;50.942;5.074;2023-02-24T08:04:31;12.88;;;3.28;;
18657;SDS011;9458;50.942;5.074;2023-02-24T08:07:01;12.77;;;3.03;;
18657;SDS011;9458;50.942;5.074;2023-02-24T08:09:37;6.57;;;2.97;;
18657;SDS011;9458;50.942;5.074;2023-02-24T08:12:34;9.35;;;3.30;;
18657;SDS011;9458;50.942;5.074;2023-02-24T08:15:07;15.05;;;3.03;;
18657;SDS011;9458;50.942;5.074;2023-02-24T08:17:49;10.48;;;2.75;;
18657;SDS011;9458;50.942;5.074;2023-02-24T08:20:18;11.55;;;4.03;;
18657;SDS011;9458;50.942;5.074;2023-02-24T08:22:54;7.82;;;2.65;;
18657;SDS011;9458;50.942;5.074;2023-02-24T08:25:23;11.23;;;3.42;;
18657;SDS011;9458;50.942;5.074;2023-02-24T08:28:01;10.55;;;3.47;;
18657;SDS011;9458;50.942;5.074;2023-02-24T08:30:32;10.80;;;4.10;;
18657;SDS011;9458;50.942;5.074;2023-02-24T08:33:06;14.40;;;3.40;;
18657;SDS011;9458;50.942;5.074;2023-02-24T08:35:35;16.60;;;3.58;;
18657;SDS011;9458;50.942;5.074;2023-02-24T08:38:09;8.80;;;3.50;;
18657;SDS011;9458;50.942;5.074;2023-02-24T08:40:41;12.73;;;3.60;;
18657;SDS011;9458;50.942;5.074;2023-02-24T08:43:18;9.30;;;3.42;;
18657;SDS011;9458;50.942;5.074;2023-02-24T08:46:00;11.07;;;4.05;;
18657;SDS011;9458;50.942;5.074;2023-02-24T08:48:40;9.40;;;3.22;;
18657;SDS011;9458;50.942;5.074;2023-02-24T08:51:10;14.43;;;3.80;;
18657;SDS011;9458;50.942;5.074;2023-02-24T08:53:42;15.68;;;3.72;;
18657;SDS011;9458;50.942;5.074;2023-02-24T08:56:12;14.32;;;3.90;;
18657;SDS011;9458;50.942;5.074;2023-02-24T08:58:48;9.57;;;3.40;;
18657;SDS011;9458;50.942;5.074;2023-02-24T09:01:23;16.23;;;3.50;;
18657;SDS011;9458;50.942;5.074;2023-02-24T09:04:01;9.18;;;3.25;;
18657;SDS011;9458;50.942;5.074;2023-02-24T09:06:36;10.45;;;3.35;;
18657;SDS011;9458;50.942;5.074;2023-02-24T09:09:08;12.50;;;3.40;;
18657;SDS011;9458;50.942;5.074;2023-02-24T09:11:48;11.05;;;3.47;;
18657;SDS011;9458;50.942;5.074;2023-02-24T09:14:21;16.40;;;3.88;;
18657;SDS011;9458;50.942;5.074;2023-02-24T09:16:51;12.35;;;4.15;;
18657;SDS011;9458;50.942;5.074;2023-02-24T09:20:04;7.00;;;3.55;;
18657;SDS011;9458;50.942;5.074;2023-02-24T09:23:20;8.65;;;3.53;;
18657;SDS011;9458;50.942;5.074;2023-02-24T09:25:54;9.57;;;3.35;;
18657;SDS011;9458;50.942;5.074;2023-02-24T09:28:22;15.23;;;4.28;;
18657;SDS011;9458;50.942;5.074;2023-02-24T09:30:52;12.18;;;3.22;;
18657;SDS011;9458;50.942;5.074;2023-02-24T09:33:22;8.20;;;3.00;;
18657;SDS011;9458;50.942;5.074;2023-02-24T09:35:55;14.00;;;3.13;;
18657;SDS011;9458;50.942;5.074;2023-02-24T09:38:34;9.20;;;3.00;;
18657;SDS011;9458;50.942;5.074;2023-02-24T09:41:34;9.80;;;3.47;;
18657;SDS011;9458;50.942;5.074;2023-02-24T09:44:24;9.85;;;2.95;;
18657;SDS011;9458;50.942;5.074;2023-02-24T09:46:59;6.28;;;2.30;;
18657;SDS011;9458;50.942;5.074;2023-02-24T09:49:38;11.00;;;2.50;;
18657;SDS011;9458;50.942;5.074;2023-02-24T09:52:14;8.20;;;2.78;;
18657;SDS011;9458;50.942;5.074;2023-02-24T09:54:45;7.78;;;3.10;;
18657;SDS011;9458;50.942;5.074;2023-02-24T09:57:32;10.05;;;3.03;;
18657;SDS011;9458;50.942;5.074;2023-02-24T10:00:27;8.55;;;2.75;;
18657;SDS011;9458;50.942;5.074;2023-02-24T10:02:59;11.40;;;3.00;;
18657;SDS011;9458;50.942;5.074;2023-02-24T10:05:46;6.60;;;3.25;;
18657;SDS011;9458;50.942;5.074;2023-02-24T10:08:28;6.78;;;2.45;;
18657;SDS011;9458;50.942;5.074;2023-02-24T10:11:01;9.68;;;2.55;;
18657;SDS011;9458;50.942;5.074;2023-02-24T10:13:34;9.82;;;2.30;;
18657;SDS011;9458;50.942;5.074;2023-02-24T10:16:05;6.75;;;2.00;;
18657;SDS011;9458;50.942;5.074;2023-02-24T10:18:38;5.97;;;2.00;;
18657;SDS011;9458;50.942;5.074;2023-02-24T10:21:15;6.22;;;1.52;;
18657;SDS011;9458;50.942;5.074;2023-02-24T10:24:01;5.45;;;1.50;;
18657;SDS011;9458;50.942;5.074;2023-02-24T10:26:39;5.47;;;1.42;;
18657;SDS011;9458;50.942;5.074;2023-02-24T10:29:18;6.20;;;1.60;;
18657;SDS011;9458;50.942;5.074;2023-02-24T10:31:57;8.85;;;1.80;;
18657;SDS011;9458;50.942;5.074;2023-02-24T10:34:32;6.35;;;1.67;;
18657;SDS011;9458;50.942;5.074;2023-02-24T10:37:00;9.25;;;1.38;;
18657;SDS011;9458;50.942;5.074;2023-02-24T10:39:38;5.82;;;1.42;;
18657;SDS011;9458;50.942;5.074;2023-02-24T10:42:08;9.27;;;1.83;;
18657;SDS011;9458;50.942;5.074;2023-02-24T10:44:43;8.73;;;1.83;;
18657;SDS011;9458;50.942;5.074;2023-02-24T10:47:19;8.85;;;1.65;;
18657;SDS011;9458;50.942;5.074;2023-02-24T10:49:57;10.02;;;2.00;;
18657;SDS011;9458;50.942;5.074;2023-02-24T10:52:28;4.45;;;1.65;;
18657;SDS011;9458;50.942;5.074;2023-02-24T10:55:38;6.30;;;1.77;;
18657;SDS011;9458;50.942;5.074;2023-02-24T10:58:27;6.28;;;2.03;;
18657;SDS011;9458;50.942;5.074;2023-02-24T11:01:11;7.72;;;2.00;;
18657;SDS011;9458;50.942;5.074;2023-02-24T11:03:48;5.28;;;2.05;;
18657;SDS011;9458;50.942;5.074;2023-02-24T11:06:31;8.65;;;2.70;;
18657;SDS011;9458;50.942;5.074;2023-02-24T11:09:18;6.03;;;2.53;;
18657;SDS011;9458;50.942;5.074;2023-02-24T11:12:12;8.52;;;2.33;;
18657;SDS011;9458;50.942;5.074;2023-02-24T11:15:00;6.90;;;2.45;;
18657;SDS011;9458;50.942;5.074;2023-02-24T11:17:49;9.00;;;2.20;;
18657;SDS011;9458;50.942;5.074;2023-02-24T11:20:26;7.47;;;2.10;;
18657;SDS011;9458;50.942;5.074;2023-02-24T11:22:55;8.80;;;2.40;;
18657;SDS011;9458;50.942;5.074;2023-02-24T11:25:24;6.35;;;2.30;;
18657;SDS011;9458;50.942;5.074;2023-02-24T11:27:55;6.60;;;2.55;;
18657;SDS011;9458;50.942;5.074;2023-02-24T11:30:25;8.52;;;2.40;;
18657;SDS011;9458;50.942;5.074;2023-02-24T11:33:06;11.38;;;2.78;;
18657;SDS011;9458;50.942;5.074;2023-02-24T11:35:43;7.07;;;2.42;;
18657;SDS011;9458;50.942;5.074;2023-02-24T11:38:18;9.70;;;2.75;;
18657;SDS011;9458;50.942;5.074;2023-02-24T11:40:58;6.88;;;2.15;;
18657;SDS011;9458;50.942;5.074;2023-02-24T11:43:33;8.07;;;2.50;;
18657;SDS011;9458;50.942;5.074;2023-02-24T11:46:05;12.98;;;2.58;;
18657;SDS011;9458;50.942;5.074;2023-02-24T11:48:38;8.75;;;2.50;;
18657;SDS011;9458;50.942;5.074;2023-02-24T11:51:09;7.40;;;2.45;;
18657;SDS011;9458;50.942;5.074;2023-02-24T11:53:41;5.82;;;2.90;;
18657;SDS011;9458;50.942;5.074;2023-02-24T11:56:15;9.93;;;2.20;;
18657;SDS011;9458;50.942;5.074;2023-02-24T11:58:52;9.00;;;3.10;;
18657;SDS011;9458;50.942;5.074;2023-02-24T12:01:26;9.65;;;2.60;;
18657;SDS011;9458;50.942;5.074;2023-02-24T12:04:00;6.93;;;2.40;;
18657;SDS011;9458;50.942;5.074;2023-02-24T12:06:40;8.07;;;2.10;;
18657;SDS011;9458;50.942;5.074;2023-02-24T12:09:14;8.45;;;2.28;;
18657;SDS011;9458;50.942;5.074;2023-02-24T12:11:47;10.32;;;2.30;;
18657;SDS011;9458;50.942;5.074;2023-02-24T12:14:29;8.20;;;2.50;;
18657;SDS011;9458;50.942;5.074;2023-02-24T12:17:07;9.13;;;2.85;;
18657;SDS011;9458;50.942;5.074;2023-02-24T12:19:47;7.32;;;2.13;;
18657;SDS011;9458;50.942;5.074;2023-02-24T12:22:25;6.25;;;2.40;;
18657;SDS011;9458;50.942;5.074;2023-02-24T12:24:59;10.07;;;2.92;;
18657;SDS011;9458;50.942;5.074;2023-02-24T12:27:35;8.65;;;2.67;;
18657;SDS011;9458;50.942;5.074;2023-02-24T12:30:20;12.05;;;2.70;;
18657;SDS011;9458;50.942;5.074;2023-02-24T12:33:09;9.35;;;2.70;;
18657;SDS011;9458;50.942;5.074;2023-02-24T12:35:46;6.75;;;2.85;;
18657;SDS011;9458;50.942;5.074;2023-02-24T12:38:26;9.82;;;2.70;;
18657;SDS011;9458;50.942;5.074;2023-02-24T12:41:11;9.27;;;2.53;;
18657;SDS011;9458;50.942;5.074;2023-02-24T12:43:47;11.95;;;2.65;;
18657;SDS011;9458;50.942;5.074;2023-02-24T12:46:24;8.85;;;2.58;;
18657;SDS011;9458;50.942;5.074;2023-02-24T12:51:52;6.45;;;2.53;;
18657;SDS011;9458;50.942;5.074;2023-02-24T12:54:30;8.57;;;2.78;;
18657;SDS011;9458;50.942;5.074;2023-02-24T12:57:09;5.70;;;2.20;;
18657;SDS011;9458;50.942;5.074;2023-02-24T12:59:42;6.82;;;2.33;;
18657;SDS011;9458;50.942;5.074;2023-02-24T13:02:15;3.75;;;2.20;;
18657;SDS011;9458;50.942;5.074;2023-02-24T13:04:53;7.85;;;2.75;;
18657;SDS011;9458;50.942;5.074;2023-02-24T13:07:34;9.27;;;2.58;;
18657;SDS011;9458;50.942;5.074;2023-02-24T13:10:25;6.13;;;2.90;;
18657;SDS011;9458;50.942;5.074;2023-02-24T13:13:05;5.65;;;2.20;;
18657;SDS011;9458;50.942;5.074;2023-02-24T13:15:47;8.10;;;2.70;;
18657;SDS011;9458;50.942;5.074;2023-02-24T13:18:24;6.07;;;2.58;;
18657;SDS011;9458;50.942;5.074;2023-02-24T13:21:02;14.65;;;2.92;;
18657;SDS011;9458;50.942;5.074;2023-02-24T13:23:32;12.65;;;3.25;;
18657;SDS011;9458;50.942;5.074;2023-02-24T13:26:01;7.28;;;2.35;;
18657;SDS011;9458;50.942;5.074;2023-02-24T13:28:32;10.52;;;2.78;;
18657;SDS011;9458;50.942;5.074;2023-02-24T13:31:03;6.50;;;2.80;;
18657;SDS011;9458;50.942;5.074;2023-02-24T13:33:36;13.43;;;3.28;;
18657;SDS011;9458;50.942;5.074;2023-02-24T13:36:12;5.97;;;2.95;;
18657;SDS011;9458;50.942;5.074;2023-02-24T13:38:47;7.18;;;2.97;;
18657;SDS011;9458;50.942;5.074;2023-02-24T13:41:22;11.25;;;3.40;;
18657;SDS011;9458;50.942;5.074;2023-02-24T13:44:03;7.10;;;2.70;;
18657;SDS011;9458;50.942;5.074;2023-02-24T13:46:47;8.02;;;3.78;;
18657;SDS011;9458;50.942;5.074;2023-02-24T13:49:33;9.80;;;3.33;;
18657;SDS011;9458;50.942;5.074;2023-02-24T13:52:12;7.03;;;3.50;;
18657;SDS011;9458;50.942;5.074;2023-02-24T13:54:57;8.30;;;3.35;;
18657;SDS011;9458;50.942;5.074;2023-02-24T13:57:49;7.28;;;3.75;;
18657;SDS011;9458;50.942;5.074;2023-02-24T14:00:30;7.25;;;3.72;;
18657;SDS011;9458;50.942;5.074;2023-02-24T14:03:08;9.15;;;3.88;;
18657;SDS011;9458;50.942;5.074;2023-02-24T14:05:41;12.25;;;4.65;;
18657;SDS011;9458;50.942;5.074;2023-02-24T14:08:12;10.52;;;4.18;;
18657;SDS011;9458;50.942;5.074;2023-02-24T14:10:49;9.95;;;3.72;;
18657;SDS011;9458;50.942;5.074;2023-02-24T14:13:21;10.45;;;4.63;;
18657;SDS011;9458;50.942;5.074;2023-02-24T14:15:54;9.45;;;3.90;;
18657;SDS011;9458;50.942;5.074;2023-02-24T14:18:24;7.80;;;3.90;;
18657;SDS011;9458;50.942;5.074;2023-02-24T14:20:56;7.88;;;4.00;;
18657;SDS011;9458;50.942;5.074;2023-02-24T14:23:25;11.25;;;5.10;;
18657;SDS011;9458;50.942;5.074;2023-02-24T14:25:54;15.45;;;4.55;;
18657;SDS011;9458;50.942;5.074;2023-02-24T14:28:27;12.77;;;4.45;;
18657;SDS011;9458;50.942;5.074;2023-02-24T14:30:57;9.20;;;4.75;;
18657;SDS011;9458;50.942;5.074;2023-02-24T14:33:29;8.82;;;4.22;;
18657;SDS011;9458;50.942;5.074;2023-02-24T14:36:01;11.82;;;4.47;;
18657;SDS011;9458;50.942;5.074;2023-02-24T14:38:32;10.02;;;4.43;;
18657;SDS011;9458;50.942;5.074;2023-02-24T14:41:01;9.82;;;4.30;;
18657;SDS011;9458;50.942;5.074;2023-02-24T14:43:31;8.27;;;4.07;;
18657;SDS011;9458;50.942;5.074;2023-02-24T14:46:06;8.10;;;4.63;;
18657;SDS011;9458;50.942;5.074;2023-02-24T14:48:35;10.23;;;4.82;;
18657;SDS011;9458;50.942;5.074;2023-02-24T14:51:06;8.57;;;4.50;;
18657;SDS011;9458;50.942;5.074;2023-02-24T14:53:40;8.18;;;5.00;;
18657;SDS011;9458;50.942;5.074;2023-02-24T14:56:12;13.02;;;5.82;;
18657;SDS011;9458;50.942;5.074;2023-02-24T14:58:41;9.48;;;5.32;;
18657;SDS011;9458;50.942;5.074;2023-02-24T15:01:13;9.82;;;5.13;;
18657;SDS011;9458;50.942;5.074;2023-02-24T15:03:58;12.27;;;5.82;;
18657;SDS011;9458;50.942;5.074;2023-02-24T15:06:33;11.52;;;5.60;;
18657;SDS011;9458;50.942;5.074;2023-02-24T15:09:10;8.15;;;4.93;;
18657;SDS011;9458;50.942;5.074;2023-02-24T15:11:42;13.55;;;5.80;;
18657;SDS011;9458;50.942;5.074;2023-02-24T15:14:18;11.60;;;5.75;;
18657;SDS011;9458;50.942;5.074;2023-02-24T15:16:49;11.15;;;5.97;;
18657;SDS011;9458;50.942;5.074;2023-02-24T15:19:24;7.07;;;5.40;;
18657;SDS011;9458;50.942;5.074;2023-02-24T15:21:55;16.42;;;6.07;;
18657;SDS011;9458;50.942;5.074;2023-02-24T15:24:24;9.75;;;6.20;;
18657;SDS011;9458;50.942;5.074;2023-02-24T15:26:53;12.93;;;6.28;;
18657;SDS011;9458;50.942;5.074;2023-02-24T15:29:23;9.48;;;5.95;;
18657;SDS011;9458;50.942;5.074;2023-02-24T15:31:52;9.15;;;6.68;;
18657;SDS011;9458;50.942;5.074;2023-02-24T15:34:22;9.85;;;6.00;;
18657;SDS011;9458;50.942;5.074;2023-02-24T15:36:52;12.57;;;7.18;;
18657;SDS011;9458;50.942;5.074;2023-02-24T15:39:28;8.80;;;6.57;;
18657;SDS011;9458;50.942;5.074;2023-02-24T15:42:07;15.00;;;6.68;;
18657;SDS011;9458;50.942;5.074;2023-02-24T15:44:49;13.80;;;6.47;;
18657;SDS011;9458;50.942;5.074;2023-02-24T15:47:20;11.32;;;6.68;;
18657;SDS011;9458;50.942;5.074;2023-02-24T15:49:51;10.82;;;6.45;;